This is the latest recevied weather packets stored in our database for station/object JA0BES-13. If no packets are shown the sender has not sent any weather packets the latest 1 day(s).
| Time | Temp. | Humidity | Pressure | Rain* | Wind** | Luminosity | Snow |
|---|---|---|---|---|---|---|---|
| 1778019944 | 12.78° C | 81% | 1019.7 hPa | 0 mm | 0.89 m/s, 238° | - | - |
| 1778019344 | 12.78° C | 81% | 1019.8 hPa | 0 mm | 0 m/s | - | - |
| 1778018743 | 12.78° C | 81% | 1020.1 hPa | 0 mm | 0.45 m/s, 211° | - | - |
| 1778018143 | 12.78° C | 79% | 1020.1 hPa | 0 mm | 0.89 m/s, 243° | - | - |
| 1778017542 | 13.33° C | 81% | 1020 hPa | 0 mm | 0.45 m/s, 234° | - | - |
| 1778016942 | 12.78° C | 82% | 1020 hPa | 0 mm | 0 m/s | - | - |
| 1778016341 | 12.22° C | 82% | 1020 hPa | 0 mm | 0 m/s | - | - |
| 1778015741 | 12.22° C | 82% | 1020 hPa | 0 mm | 0 m/s | - | - |
| 1778015141 | 12.22° C | 82% | 1019.9 hPa | 0 mm | 0 m/s | - | - |
| 1777982722 | 14.44° C | 55% | 1018.2 hPa | 0 mm | 0.45 m/s, 225° | - | - |
| 1777982122 | 15° C | 55% | 1018.1 hPa | 0 mm | 0 m/s | - | - |
| 1777981521 | 15° C | 55% | 1017.9 hPa | 0 mm | 0 m/s | - | - |
| 1777980921 | 15° C | 55% | 1017.7 hPa | 0 mm | 0 m/s | - | - |
| 1777980320 | 15.56° C | 57% | 1017.8 hPa | 0 mm | 0 m/s | - | - |
| 1777979720 | 16.11° C | 55% | 1017.7 hPa | 0 mm | 0 m/s | - | - |
| 1777979120 | 16.67° C | 53% | 1017.2 hPa | 0 mm | 0 m/s | - | - |
| 1777978520 | 16.67° C | 53% | 1017.1 hPa | 0 mm | 0 m/s | - | - |
| 1777977919 | 17.22° C | 53% | 1016.9 hPa | 0 mm | 0 m/s | - | - |
| 1777977319 | 17.22° C | 51% | 1016.9 hPa | 0 mm | 0 m/s | - | - |
| 1777976116 | 17.78° C | 50% | 1016.9 hPa | 0 mm | 0 m/s | - | - |
| 1777975516 | 18.33° C | 49% | 1016.5 hPa | 0 mm | 0 m/s | - | - |
| 1777974916 | 18.33° C | 48% | 1016.3 hPa | 0 mm | 0 m/s | - | - |
| 1777974315 | 18.89° C | 47% | 1016.2 hPa | 0 mm | 0 m/s | - | - |
| 1777973715 | 18.89° C | 45% | 1016.1 hPa | 0 mm | 0 m/s | - | - |
| 1777973114 | 19.44° C | 44% | 1016 hPa | 0 mm | 0 m/s | - | - |
* Rain since midnight (hover to see other rain measurements)
** Current wind speed in m/s (hover to see current wind gust speed)